Time;durP1;ratioP1;P1;durP2;ratioP2;P2;SDS_P1;SDS_P2;PMS_P1;PMS_P2;Temp;Humidity;BMP_temperature;BMP_pressure;BME280_temperature;BME280_humidity;BME280_pressure;Samples;Min_cycle;Max_cycle;Signal;HPM_P1;HPM_P2
2023/01/04 00:01:16;;;;;;;9.65;3.97;;;8.40;99.90;;;;;;5044700;28;20083;-65
2023/01/04 00:03:42;;;;;;;8.35;3.72;;;8.40;99.90;;;;;;5044145;28;20041;-65
2023/01/04 00:06:12;;;;;;;11.35;4.10;;;8.30;99.90;;;;;;5052741;28;20463;-65
2023/01/04 00:08:37;;;;;;;6.95;3.85;;;8.30;99.90;;;;;;5053139;28;20080;-65
2023/01/04 00:11:09;;;;;;;8.57;3.50;;;8.30;99.90;;;;;;5040852;28;20091;-65
2023/01/04 00:13:35;;;;;;;9.25;4.15;;;8.30;99.90;;;;;;5034481;28;20717;-65
2023/01/04 00:16:08;;;;;;;6.93;3.35;;;8.30;99.90;;;;;;5052433;28;20036;-65
2023/01/04 00:18:35;;;;;;;9.30;4.03;;;8.30;99.90;;;;;;5037432;28;20514;-65
2023/01/04 00:21:11;;;;;;;5.95;3.55;;;8.30;99.90;;;;;;5044045;28;20049;-65
2023/01/04 00:23:41;;;;;;;7.22;4.18;;;8.40;99.90;;;;;;5052607;28;20037;-65
2023/01/04 00:26:08;;;;;;;11.30;4.22;;;8.30;99.90;;;;;;5040711;28;20128;-65
2023/01/04 00:28:34;;;;;;;6.78;3.22;;;8.40;99.90;;;;;;5039921;28;20060;-65
2023/01/04 00:31:09;;;;;;;7.18;3.70;;;8.40;99.90;;;;;;5052052;28;20475;-65
2023/01/04 00:33:54;;;;;;;6.35;3.55;;;8.40;99.90;;;;;;5047838;28;20063;-65
2023/01/04 00:36:21;;;;;;;11.43;3.50;;;8.40;99.90;;;;;;5044129;28;20511;-65
2023/01/04 00:38:46;;;;;;;9.13;3.83;;;8.30;99.90;;;;;;5052083;28;20079;-65
2023/01/04 00:41:12;;;;;;;9.95;3.65;;;8.30;99.90;;;;;;5051865;28;20091;-65
2023/01/04 00:43:38;;;;;;;9.45;3.90;;;8.30;99.90;;;;;;5048811;28;21149;-65
2023/01/04 00:46:06;;;;;;;8.43;3.80;;;8.30;99.90;;;;;;5036129;28;20067;-65
2023/01/04 00:48:32;;;;;;;7.70;3.35;;;8.20;99.90;;;;;;5051702;28;20159;-65
2023/01/04 00:50:59;;;;;;;10.48;3.72;;;8.20;99.90;;;;;;5044877;28;20835;-65
2023/01/04 00:53:24;;;;;;;8.77;3.70;;;8.20;99.90;;;;;;5043147;28;20114;-65
2023/01/04 00:55:50;;;;;;;10.40;3.83;;;8.20;99.90;;;;;;5030380;28;20072;-65
2023/01/04 00:58:16;;;;;;;7.35;3.80;;;8.20;99.90;;;;;;5051918;28;20036;-65
2023/01/04 01:00:41;;;;;;;9.35;3.90;;;8.20;99.90;;;;;;5044838;28;20033;-65
2023/01/04 01:03:07;;;;;;;8.27;3.60;;;8.20;99.90;;;;;;5047646;28;20092;-65
2023/01/04 01:05:34;;;;;;;10.50;4.30;;;8.20;99.90;;;;;;5051702;28;20037;-65
2023/01/04 01:08:23;;;;;;;11.05;3.35;;;8.20;99.90;;;;;;5039231;28;20044;-65
2023/01/04 01:10:49;;;;;;;8.82;3.60;;;8.20;99.90;;;;;;5047567;28;20615;-65
2023/01/04 01:13:15;;;;;;;7.53;3.92;;;8.20;99.90;;;;;;5051934;28;20033;-65
2023/01/04 01:15:40;;;;;;;8.45;4.13;;;8.20;99.90;;;;;;5048087;28;20047;-65
2023/01/04 01:18:06;;;;;;;9.50;4.38;;;8.20;99.90;;;;;;5050054;28;20049;-64
2023/01/04 01:20:32;;;;;;;7.63;4.20;;;8.20;99.90;;;;;;5051359;28;20430;-65
2023/01/04 01:22:57;;;;;;;10.70;3.95;;;8.20;99.90;;;;;;5050909;28;20501;-65
2023/01/04 01:25:23;;;;;;;6.53;3.28;;;8.20;99.90;;;;;;5041429;28;20039;-65
2023/01/04 01:27:48;;;;;;;7.45;4.00;;;8.30;99.90;;;;;;5049690;28;20040;-65
2023/01/04 01:30:14;;;;;;;10.73;4.07;;;8.30;99.90;;;;;;5051664;28;20036;-65
2023/01/04 01:32:40;;;;;;;14.25;5.18;;;8.30;99.90;;;;;;5048617;28;20043;-65
2023/01/04 01:35:05;;;;;;;7.40;3.85;;;8.20;99.90;;;;;;5050097;28;20041;-65
2023/01/04 01:37:31;;;;;;;10.60;3.85;;;8.30;99.90;;;;;;5050713;28;20048;-65
2023/01/04 01:39:56;;;;;;;9.23;3.95;;;8.30;99.90;;;;;;5051563;28;20742;-65
2023/01/04 01:42:22;;;;;;;9.52;3.80;;;8.30;99.90;;;;;;5039825;28;20063;-65
2023/01/04 01:44:57;;;;;;;10.65;4.05;;;8.20;99.90;;;;;;5047559;28;20062;-65
2023/01/04 01:47:27;;;;;;;6.78;3.60;;;8.30;99.90;;;;;;5051264;28;20037;-65
2023/01/04 01:49:54;;;;;;;10.85;4.65;;;8.30;99.90;;;;;;5036853;28;20068;-65
2023/01/04 01:52:29;;;;;;;9.27;4.05;;;8.30;99.90;;;;;;5049499;28;20497;-65
2023/01/04 01:54:59;;;;;;;9.80;3.90;;;8.30;99.90;;;;;;5051476;28;20535;-65
2023/01/04 01:57:28;;;;;;;7.97;4.40;;;8.30;99.90;;;;;;5047970;28;20033;-65
2023/01/04 01:59:57;;;;;;;5.75;3.65;;;8.40;99.90;;;;;;5050176;28;20052;-65
2023/01/04 02:02:22;;;;;;;10.40;4.22;;;8.40;99.90;;;;;;5050392;28;20037;-65
2023/01/04 02:04:49;;;;;;;11.45;3.60;;;8.40;99.90;;;;;;5051279;28;20068;-65
2023/01/04 02:07:21;;;;;;;7.38;3.88;;;8.40;99.90;;;;;;5033658;28;20403;-65
2023/01/04 02:09:49;;;;;;;11.55;4.85;;;8.40;99.90;;;;;;5047126;28;20708;-65
2023/01/04 02:12:14;;;;;;;12.27;4.35;;;8.40;99.90;;;;;;5051005;28;20083;-65
2023/01/04 02:14:44;;;;;;;6.82;4.05;;;8.40;99.90;;;;;;5045456;28;20033;-65
2023/01/04 02:17:10;;;;;;;8.70;4.28;;;8.40;99.90;;;;;;5037380;28;20145;-65
2023/01/04 02:19:47;;;;;;;9.98;4.68;;;8.50;99.90;;;;;;5041443;28;20551;-65
2023/01/04 02:22:37;;;;;;;10.68;4.22;;;8.40;99.90;;;;;;5046300;28;20033;-65
2023/01/04 02:25:42;;;;;;;9.85;4.63;;;8.50;99.90;;;;;;5050991;28;20036;-65
2023/01/04 02:28:47;;;;;;;6.78;3.72;;;8.50;99.90;;;;;;5029386;28;20045;-65
2023/01/04 02:31:19;;;;;;;6.30;3.47;;;8.50;99.90;;;;;;5049630;28;20036;-65
2023/01/04 02:33:53;;;;;;;8.48;4.15;;;8.50;99.90;;;;;;5050446;28;20044;-65
2023/01/04 02:36:31;;;;;;;6.13;3.95;;;8.60;99.90;;;;;;5033340;28;20033;-64
2023/01/04 02:39:01;;;;;;;5.50;3.95;;;8.60;99.90;;;;;;5041310;28;20045;-65
2023/01/04 02:41:34;;;;;;;6.47;3.80;;;8.60;99.90;;;;;;5050023;28;20194;-65
2023/01/04 02:47:15;;;;;;;7.00;4.03;;;8.70;99.90;;;;;;5049069;28;20186;-65
2023/01/04 02:52:26;;;;;;;7.88;3.95;;;8.70;99.90;;;;;;5042241;28;20069;-65
2023/01/04 02:54:55;;;;;;;6.28;3.65;;;8.70;99.90;;;;;;5045973;28;20090;-65
2023/01/04 02:57:43;;;;;;;6.93;4.10;;;8.80;99.90;;;;;;5050756;28;20059;-65
2023/01/04 03:07:22;;;;;;;6.35;4.30;;;8.90;99.90;;;;;;5034222;28;20052;-64
2023/01/04 03:09:51;;;;;;;5.00;3.78;;;9.00;99.90;;;;;;4950085;28;20442;-64
2023/01/04 03:12:31;;;;;;;4.40;3.10;;;9.00;99.90;;;;;;4952965;28;20490;-65
2023/01/04 03:15:06;;;;;;;6.05;3.80;;;9.00;99.90;;;;;;5011825;28;20076;-65
2023/01/04 03:17:38;;;;;;;6.15;4.13;;;9.00;99.90;;;;;;5044932;28;20076;-65
2023/01/04 03:20:06;;;;;;;6.20;3.88;;;9.00;99.90;;;;;;5052006;28;20091;-65
2023/01/04 03:37:27;;;;;;;6.93;4.50;;;9.50;99.90;;;;;;5045955;28;20130;-65
2023/01/04 03:49:38;;;;;;;7.32;4.80;;;9.60;99.90;;;;;;5053684;28;20052;-64
2023/01/04 03:52:05;;;;;;;6.68;4.68;;;9.60;99.90;;;;;;5040057;28;20045;-64
2023/01/04 03:54:36;;;;;;;8.23;4.78;;;9.60;99.90;;;;;;5053021;28;20040;-65
2023/01/04 03:57:04;;;;;;;8.55;5.15;;;9.60;99.90;;;;;;5053186;28;20116;-65
2023/01/04 03:59:30;;;;;;;6.20;4.70;;;9.70;99.90;;;;;;5036619;28;20044;-65
2023/01/04 04:01:56;;;;;;;7.53;4.88;;;9.70;99.90;;;;;;5046062;28;20495;-65
2023/01/04 04:09:49;;;;;;;5.43;4.53;;;9.70;99.90;;;;;;5041373;28;20052;-65
2023/01/04 04:12:15;;;;;;;7.70;4.65;;;9.70;99.90;;;;;;5052647;28;20037;-64
2023/01/04 04:14:41;;;;;;;5.72;4.53;;;9.70;99.90;;;;;;5047093;28;20040;-65
2023/01/04 04:17:06;;;;;;;4.80;3.85;;;9.80;99.90;;;;;;5037139;28;20041;-65
2023/01/04 04:19:32;;;;;;;5.47;4.15;;;9.80;99.90;;;;;;5047198;28;20028;-65
2023/01/04 04:21:57;;;;;;;6.32;5.00;;;9.90;99.90;;;;;;5052039;28;20094;-65
2023/01/04 04:24:25;;;;;;;6.50;4.60;;;9.90;99.90;;;;;;5038804;28;20475;-65
2023/01/04 04:26:56;;;;;;;6.45;4.03;;;9.90;99.90;;;;;;5042474;28;20122;-65
2023/01/04 04:29:23;;;;;;;4.20;3.60;;;10.00;99.90;;;;;;5052542;28;20487;-65
2023/01/04 04:31:48;;;;;;;5.35;3.92;;;10.00;99.90;;;;;;5048929;28;20048;-65
2023/01/04 04:34:14;;;;;;;5.53;3.92;;;10.10;99.90;;;;;;5050699;28;20039;-65
2023/01/04 04:36:39;;;;;;;5.07;3.35;;;10.00;99.90;;;;;;5051417;28;20123;-65
2023/01/04 04:39:05;;;;;;;5.78;4.03;;;10.10;99.90;;;;;;5052627;28;20041;-65
2023/01/04 04:41:43;;;;;;;5.88;4.18;;;10.00;99.90;;;;;;5045868;28;20041;-65
2023/01/04 04:44:17;;;;;;;5.25;4.07;;;10.10;99.90;;;;;;5035770;28;20052;-65
2023/01/04 04:46:43;;;;;;;5.25;4.28;;;10.10;99.90;;;;;;5047987;28;20167;-65
2023/01/04 04:49:10;;;;;;;6.18;3.90;;;10.10;99.90;;;;;;5046961;28;20052;-65
2023/01/04 04:51:36;;;;;;;5.28;3.75;;;10.10;99.90;;;;;;5042532;28;20048;-65
2023/01/04 04:54:03;;;;;;;6.55;4.07;;;10.10;99.90;;;;;;5046139;28;20041;-65
2023/01/04 04:56:28;;;;;;;5.30;3.80;;;10.20;99.90;;;;;;5043594;28;20037;-65
2023/01/04 04:58:54;;;;;;;6.47;4.90;;;10.20;99.90;;;;;;5051830;28;20422;-65
2023/01/04 05:01:20;;;;;;;6.45;4.38;;;10.20;99.90;;;;;;5051880;28;20553;-66
2023/01/04 05:03:46;;;;;;;5.22;4.45;;;10.30;99.90;;;;;;5039343;28;20041;-66
2023/01/04 05:06:12;;;;;;;6.25;5.18;;;10.30;99.90;;;;;;5022033;28;20045;-66
2023/01/04 05:08:37;;;;;;;6.57;4.82;;;10.30;99.90;;;;;;5039811;28;20083;-66
2023/01/04 05:11:08;;;;;;;6.07;5.47;;;10.40;99.90;;;;;;5033464;28;20041;-66
2023/01/04 05:13:34;;;;;;;5.93;4.43;;;10.40;99.90;;;;;;5048455;28;20039;-66
2023/01/04 05:16:01;;;;;;;7.38;5.50;;;10.40;99.90;;;;;;5048417;28;20041;-66
2023/01/04 05:18:27;;;;;;;7.10;4.72;;;10.50;99.90;;;;;;5051340;28;20111;-66
2023/01/04 05:20:52;;;;;;;8.27;5.78;;;10.40;99.90;;;;;;5051242;28;20037;-67
2023/01/04 05:23:20;;;;;;;7.50;6.15;;;10.50;99.90;;;;;;5033608;28;20033;-66
2023/01/04 05:25:51;;;;;;;7.00;4.97;;;10.50;99.90;;;;;;5050007;28;20041;-66
2023/01/04 05:28:17;;;;;;;6.30;4.82;;;10.50;99.90;;;;;;5051827;22;20048;-65
2023/01/04 05:30:52;;;;;;;8.07;5.97;;;10.50;99.90;;;;;;5031103;28;20045;-66
2023/01/04 05:33:29;;;;;;;7.05;4.82;;;10.60;99.90;;;;;;5025794;28;20551;-66
2023/01/04 05:35:57;;;;;;;8.13;5.80;;;10.60;99.90;;;;;;5031024;28;20037;-66
2023/01/04 05:38:23;;;;;;;7.25;6.10;;;10.70;99.90;;;;;;5018552;28;20038;-65
2023/01/04 05:40:50;;;;;;;8.38;5.38;;;10.70;99.90;;;;;;5001786;28;20069;-65
2023/01/04 05:43:17;;;;;;;7.28;5.60;;;10.70;99.90;;;;;;5014579;28;20079;-66
2023/01/04 05:45:46;;;;;;;7.53;5.88;;;10.70;99.90;;;;;;5027498;28;20519;-66
2023/01/04 05:48:11;;;;;;;8.98;6.35;;;10.80;99.90;;;;;;5002697;28;20506;-66
2023/01/04 05:50:37;;;;;;;7.93;6.00;;;10.80;99.90;;;;;;4985954;28;20037;-66
2023/01/04 05:53:04;;;;;;;10.05;6.05;;;10.90;99.90;;;;;;5011238;28;20447;-66
2023/01/04 05:55:32;;;;;;;8.07;5.80;;;10.90;99.90;;;;;;5003745;28;20137;-66
2023/01/04 05:57:57;;;;;;;7.93;5.47;;;10.90;99.90;;;;;;4977601;28;20138;-65
2023/01/04 06:00:23;;;;;;;9.02;6.43;;;10.90;99.90;;;;;;4994012;28;20121;-66
2023/01/04 06:02:51;;;;;;;8.02;6.22;;;10.90;99.90;;;;;;4998233;28;20415;-65
2023/01/04 06:05:17;;;;;;;8.45;6.57;;;10.90;99.90;;;;;;4998512;28;20117;-66
2023/01/04 06:07:42;;;;;;;8.38;5.68;;;10.90;99.90;;;;;;4996874;28;20121;-66
2023/01/04 06:10:10;;;;;;;8.43;5.50;;;10.90;99.90;;;;;;4998117;28;20077;-66
2023/01/04 06:12:36;;;;;;;8.57;5.72;;;11.00;99.90;;;;;;5002392;28;20060;-65
2023/01/04 06:15:02;;;;;;;8.63;5.80;;;10.90;99.90;;;;;;5002421;28;20055;-66
2023/01/04 06:17:27;;;;;;;7.00;5.72;;;10.90;99.90;;;;;;5004061;28;20405;-66
2023/01/04 06:19:53;;;;;;;8.10;5.40;;;11.00;99.90;;;;;;5011108;28;20049;-65
2023/01/04 06:22:19;;;;;;;6.88;5.30;;;11.00;99.90;;;;;;5008497;28;20104;-66
2023/01/04 06:24:45;;;;;;;8.25;5.85;;;11.00;99.90;;;;;;5006282;28;20039;-65
2023/01/04 06:27:10;;;;;;;7.22;6.35;;;11.10;99.90;;;;;;5010337;28;20044;-66
2023/01/04 06:29:36;;;;;;;8.57;6.60;;;11.10;99.90;;;;;;4994098;28;20034;-66
2023/01/04 06:32:02;;;;;;;9.25;6.35;;;11.10;99.90;;;;;;5003707;28;20053;-66
2023/01/04 06:34:28;;;;;;;9.25;5.88;;;11.00;99.90;;;;;;4995440;28;20117;-65
2023/01/04 06:36:53;;;;;;;6.80;4.63;;;11.00;99.90;;;;;;5007663;28;20084;-66
2023/01/04 06:39:19;;;;;;;6.90;5.20;;;11.00;99.90;;;;;;5009796;28;20038;-66
2023/01/04 06:41:45;;;;;;;6.80;4.78;;;11.00;99.90;;;;;;5012725;28;20099;-66
2023/01/04 06:44:10;;;;;;;6.07;4.43;;;11.00;99.90;;;;;;5008912;28;20045;-66
2023/01/04 06:46:36;;;;;;;9.10;3.95;;;11.00;99.90;;;;;;5005277;28;20068;-66
2023/01/04 06:49:02;;;;;;;8.75;4.20;;;11.00;99.90;;;;;;5011325;28;20108;-66
2023/01/04 06:51:27;;;;;;;5.55;3.75;;;11.00;99.90;;;;;;5012535;28;20111;-66
2023/01/04 06:53:53;;;;;;;5.13;3.90;;;11.00;99.90;;;;;;5013413;28;20041;-66
2023/01/04 06:56:19;;;;;;;6.95;4.45;;;11.00;99.90;;;;;;5007478;28;20129;-66
2023/01/04 06:58:44;;;;;;;5.43;4.15;;;11.00;99.90;;;;;;5012727;28;20053;-65
2023/01/04 07:01:13;;;;;;;7.03;4.80;;;11.00;99.90;;;;;;5012123;28;20038;-65
2023/01/04 07:03:39;;;;;;;5.57;3.67;;;11.10;99.90;;;;;;5008738;28;20447;-66
2023/01/04 07:06:05;;;;;;;4.80;3.90;;;11.10;99.90;;;;;;5012434;28;20038;-65
2023/01/04 07:08:31;;;;;;;6.03;4.10;;;11.10;99.90;;;;;;5009259;28;20042;-65
2023/01/04 07:10:57;;;;;;;4.63;3.55;;;11.10;99.90;;;;;;5009131;28;20065;-65
2023/01/04 07:13:23;;;;;;;4.72;2.92;;;11.20;99.90;;;;;;5012730;28;20058;-65
2023/01/04 07:15:48;;;;;;;4.90;3.42;;;11.10;99.90;;;;;;4995515;28;20034;-66
2023/01/04 07:18:14;;;;;;;4.72;3.80;;;11.10;99.90;;;;;;5005114;28;20054;-66
2023/01/04 07:20:40;;;;;;;3.72;2.88;;;11.20;99.90;;;;;;5005771;28;20084;-65
2023/01/04 07:23:06;;;;;;;5.32;3.28;;;11.20;99.90;;;;;;5005441;28;20045;-66
2023/01/04 07:25:32;;;;;;;4.22;3.00;;;11.20;99.90;;;;;;5001122;28;20084;-66
2023/01/04 07:27:57;;;;;;;4.97;3.30;;;11.20;99.90;;;;;;5007976;28;20072;-65
2023/01/04 07:30:23;;;;;;;5.80;3.53;;;11.20;99.90;;;;;;5012265;28;20037;-65
2023/01/04 07:32:51;;;;;;;5.18;3.35;;;11.20;99.90;;;;;;5012076;28;20060;-66
2023/01/04 07:35:18;;;;;;;4.82;3.28;;;11.20;99.90;;;;;;4999947;28;20060;-65
2023/01/04 07:37:44;;;;;;;4.43;3.33;;;11.20;99.90;;;;;;4981340;28;20054;-65
2023/01/04 07:40:10;;;;;;;6.43;3.58;;;11.20;99.90;;;;;;5013661;28;20034;-66
2023/01/04 07:42:36;;;;;;;4.85;3.78;;;11.20;99.90;;;;;;5012397;28;20045;-66
2023/01/04 07:45:03;;;;;;;5.10;3.67;;;11.20;99.90;;;;;;5007816;28;20038;-66
2023/01/04 07:47:28;;;;;;;4.53;3.38;;;11.20;99.90;;;;;;5003074;28;20034;-65
2023/01/04 07:49:54;;;;;;;5.07;3.63;;;11.20;99.90;;;;;;5009968;28;20037;-65
2023/01/04 07:52:20;;;;;;;4.88;3.50;;;11.20;99.90;;;;;;4991156;28;20034;-65
2023/01/04 07:54:45;;;;;;;4.82;3.25;;;11.20;99.90;;;;;;5000046;28;20048;-65
2023/01/04 07:57:11;;;;;;;5.22;3.35;;;11.20;99.90;;;;;;4994012;28;20124;-65
2023/01/04 07:59:37;;;;;;;5.70;3.92;;;11.20;99.90;;;;;;5012370;28;20048;-66
2023/01/04 08:02:02;;;;;;;6.03;3.90;;;11.20;99.90;;;;;;5003206;28;20081;-65
2023/01/04 08:04:28;;;;;;;6.60;4.20;;;11.30;99.90;;;;;;5002611;28;20040;-66
2023/01/04 08:06:54;;;;;;;5.63;3.85;;;11.30;99.90;;;;;;5009689;28;20045;-66
2023/01/04 08:09:19;;;;;;;5.85;4.07;;;11.30;99.90;;;;;;5004016;28;20042;-66
2023/01/04 08:11:46;;;;;;;6.30;4.30;;;11.20;99.90;;;;;;4979507;28;20041;-66
2023/01/04 08:14:12;;;;;;;6.18;4.10;;;11.30;99.90;;;;;;4990370;28;20041;-66
2023/01/04 08:16:39;;;;;;;6.05;4.47;;;11.30;99.90;;;;;;5007302;28;20033;-66
2023/01/04 08:19:27;;;;;;;6.45;4.28;;;11.30;99.90;;;;;;5008941;28;20042;-66
2023/01/04 08:21:52;;;;;;;5.97;3.90;;;11.30;99.90;;;;;;5005450;28;20050;-66
2023/01/04 08:24:18;;;;;;;7.80;4.82;;;11.40;99.90;;;;;;5011650;28;20041;-66
2023/01/04 08:26:45;;;;;;;10.77;5.00;;;11.30;99.90;;;;;;4998568;28;20038;-66
2023/01/04 08:29:12;;;;;;;6.30;4.53;;;11.40;99.90;;;;;;5011692;28;20126;-66
2023/01/04 08:31:38;;;;;;;6.72;4.68;;;11.40;99.90;;;;;;5012414;28;20461;-66
2023/01/04 08:34:06;;;;;;;9.02;4.70;;;11.40;99.90;;;;;;5010112;28;20507;-65
2023/01/04 08:36:34;;;;;;;10.02;5.85;;;11.50;99.90;;;;;;4996831;28;20515;-66
2023/01/04 08:39:03;;;;;;;7.22;4.93;;;11.50;99.90;;;;;;5010452;28;20073;-66
2023/01/04 08:41:31;;;;;;;6.82;5.10;;;11.50;99.90;;;;;;5012682;28;20120;-66
2023/01/04 08:43:57;;;;;;;6.72;4.80;;;11.50;99.90;;;;;;5004445;28;20042;-66
2023/01/04 08:46:23;;;;;;;7.18;4.95;;;11.50;99.90;;;;;;5012273;28;20040;-65
2023/01/04 08:48:50;;;;;;;9.07;5.28;;;11.60;99.90;;;;;;5012209;28;20053;-66
2023/01/04 08:51:16;;;;;;;9.27;5.45;;;11.50;99.90;;;;;;5000473;28;20034;-66
2023/01/04 08:53:43;;;;;;;9.80;6.15;;;11.60;99.90;;;;;;5003630;28;20036;-66
2023/01/04 08:56:09;;;;;;;7.70;5.63;;;11.50;99.90;;;;;;4999110;28;20042;-66
2023/01/04 08:58:36;;;;;;;8.00;4.72;;;11.60;99.90;;;;;;5004031;28;20037;-66
2023/01/04 09:01:07;;;;;;;8.68;6.03;;;11.50;99.90;;;;;;4999531;28;20030;-65
2023/01/04 09:03:33;;;;;;;7.55;4.90;;;11.50;99.90;;;;;;5000094;28;20114;-66
2023/01/04 09:06:04;;;;;;;8.15;4.80;;;11.60;99.90;;;;;;5012152;28;20623;-65
2023/01/04 09:08:32;;;;;;;8.27;4.80;;;11.60;99.90;;;;;;5001380;28;20084;-66
2023/01/04 09:11:02;;;;;;;7.20;4.65;;;11.60;99.90;;;;;;5010599;28;20041;-66
2023/01/04 09:13:27;;;;;;;8.55;5.05;;;11.60;99.90;;;;;;4991963;28;20640;-65
2023/01/04 09:15:53;;;;;;;7.22;4.63;;;11.60;99.90;;;;;;4987279;28;20051;-66
2023/01/04 09:18:18;;;;;;;6.18;4.28;;;11.60;99.90;;;;;;4988991;28;20060;-66
2023/01/04 09:20:44;;;;;;;9.30;4.93;;;11.70;99.90;;;;;;5007972;28;20046;-65
2023/01/04 09:23:09;;;;;;;7.53;5.07;;;11.70;99.90;;;;;;4983123;28;20049;-65
2023/01/04 09:25:38;;;;;;;6.05;4.35;;;11.60;99.90;;;;;;5010145;28;20168;-66
2023/01/04 09:28:04;;;;;;;6.35;4.40;;;11.70;99.90;;;;;;5011389;28;20441;-66
2023/01/04 09:30:30;;;;;;;6.28;4.40;;;11.70;99.90;;;;;;5001458;28;20034;-65
2023/01/04 09:32:56;;;;;;;5.95;3.95;;;11.70;99.90;;;;;;4998399;28;20560;-66
2023/01/04 09:35:21;;;;;;;5.32;3.90;;;11.70;99.90;;;;;;4980164;28;20045;-65
2023/01/04 09:37:47;;;;;;;6.10;3.63;;;11.70;99.90;;;;;;5001986;28;20046;-65
2023/01/04 09:40:21;;;;;;;4.70;3.70;;;11.70;99.90;;;;;;5009337;28;20038;-65
2023/01/04 09:42:48;;;;;;;5.00;3.70;;;11.80;99.90;;;;;;4993898;28;20061;-66
2023/01/04 09:45:23;;;;;;;5.90;3.78;;;11.80;99.90;;;;;;5010410;28;20042;-65
2023/01/04 09:48:12;;;;;;;4.45;3.00;;;11.80;99.90;;;;;;4996438;28;20065;-66
2023/01/04 09:50:53;;;;;;;4.80;2.95;;;11.80;99.90;;;;;;4998901;28;20034;-67
2023/01/04 09:53:32;;;;;;;4.20;2.55;;;11.80;99.90;;;;;;5001924;28;20069;-66
2023/01/04 09:56:29;;;;;;;3.60;2.83;;;11.80;99.90;;;;;;4984272;28;20042;-66
2023/01/04 09:58:56;;;;;;;3.38;2.38;;;11.80;99.90;;;;;;5004617;28;20054;-65
2023/01/04 10:01:31;;;;;;;4.05;2.40;;;11.80;99.90;;;;;;5009913;28;20428;-66
2023/01/04 10:04:22;;;;;;;4.43;2.08;;;11.80;99.90;;;;;;5009735;28;20559;-66
2023/01/04 10:06:48;;;;;;;2.70;2.03;;;11.90;99.90;;;;;;5007941;28;20038;-65
2023/01/04 10:09:15;;;;;;;3.97;2.20;;;11.90;99.90;;;;;;5010990;28;20103;-66
2023/01/04 10:12:00;;;;;;;2.90;2.03;;;11.90;99.90;;;;;;5015250;28;20065;-66
2023/01/04 10:14:38;;;;;;;3.63;2.20;;;11.90;99.90;;;;;;4983555;28;20065;-66
2023/01/04 10:17:22;;;;;;;2.67;2.00;;;11.90;99.90;;;;;;4997695;28;20507;-66
2023/01/04 10:20:15;;;;;;;4.05;2.42;;;11.90;99.90;;;;;;5015363;28;20042;-66
2023/01/04 10:23:12;;;;;;;3.55;1.80;;;11.90;99.90;;;;;;5008194;28;20057;-66
2023/01/04 10:25:57;;;;;;;2.03;1.83;;;11.90;99.90;;;;;;5009849;28;20037;-66
2023/01/04 10:28:43;;;;;;;3.33;1.83;;;11.90;99.90;;;;;;5008323;28;20042;-66
2023/01/04 10:31:15;;;;;;;1.90;1.63;;;12.00;99.90;;;;;;5005374;28;20393;-65
2023/01/04 10:33:49;;;;;;;2.33;1.60;;;11.90;99.90;;;;;;5003160;28;20026;-65
2023/01/04 10:36:20;;;;;;;1.95;1.52;;;12.00;99.90;;;;;;4997026;28;20481;-66
2023/01/04 10:39:01;;;;;;;1.98;1.70;;;12.00;99.90;;;;;;4997451;28;20125;-66
2023/01/04 10:41:32;;;;;;;2.00;1.67;;;12.00;99.90;;;;;;4986686;28;20050;-66
2023/01/04 10:44:11;;;;;;;2.38;1.88;;;12.00;99.90;;;;;;5007184;28;20033;-65
2023/01/04 10:47:09;;;;;;;2.88;2.10;;;12.10;99.90;;;;;;5013029;28;20137;-66
2023/01/04 10:49:48;;;;;;;3.55;2.00;;;12.10;99.90;;;;;;5012552;28;20049;-66
2023/01/04 10:52:39;;;;;;;3.85;2.20;;;12.20;99.90;;;;;;5000757;28;20035;-66
2023/01/04 10:55:21;;;;;;;5.95;2.17;;;12.20;99.90;;;;;;5007761;28;20468;-66
2023/01/04 10:57:56;;;;;;;3.30;2.10;;;12.20;99.90;;;;;;5007435;28;20041;-65
2023/01/04 11:00:36;;;;;;;2.72;2.10;;;12.30;99.90;;;;;;5000176;28;20488;-65
2023/01/04 11:03:11;;;;;;;3.10;2.10;;;12.30;99.90;;;;;;5012310;28;20128;-65
2023/01/04 11:05:56;;;;;;;2.25;1.88;;;12.30;99.90;;;;;;5014641;28;20038;-66
2023/01/04 11:08:36;;;;;;;2.30;2.10;;;12.30;99.90;;;;;;5014146;28;20050;-65
2023/01/04 11:11:11;;;;;;;3.95;2.15;;;12.30;99.90;;;;;;5003295;28;20089;-65
2023/01/04 11:13:37;;;;;;;3.00;2.40;;;12.40;99.90;;;;;;5010499;28;20404;-65
2023/01/04 11:16:04;;;;;;;5.15;2.30;;;12.40;99.90;;;;;;5007086;28;20038;-65
2023/01/04 11:18:31;;;;;;;4.15;2.22;;;12.40;99.90;;;;;;5011657;28;20061;-65
2023/01/04 11:20:58;;;;;;;3.00;2.17;;;12.40;99.90;;;;;;4991109;28;20127;-65
2023/01/04 11:23:24;;;;;;;5.10;2.30;;;12.40;99.90;;;;;;5006091;28;20071;-65
2023/01/04 11:25:59;;;;;;;5.53;2.65;;;12.40;99.90;;;;;;5012180;28;20100;-65
2023/01/04 11:28:28;;;;;;;4.45;2.60;;;12.50;99.90;;;;;;5026120;22;20364;-66
2023/01/04 11:31:21;;;;;;;5.70;3.03;;;12.40;99.90;;;;;;5020586;28;20128;-66
2023/01/04 11:33:58;;;;;;;5.82;3.00;;;12.60;99.90;;;;;;5031758;28;20036;-66
2023/01/04 11:36:30;;;;;;;8.43;3.38;;;12.60;99.90;;;;;;5053784;28;20081;-66
2023/01/04 11:38:56;;;;;;;7.65;3.40;;;12.70;99.90;;;;;;5033522;28;20052;-66
2023/01/04 11:41:23;;;;;;;9.65;3.55;;;12.70;99.90;;;;;;5031233;28;20064;-66
2023/01/04 11:44:01;;;;;;;7.55;3.50;;;12.80;99.90;;;;;;5029480;28;20426;-66
2023/01/04 11:46:27;;;;;;;8.05;3.80;;;12.80;99.90;;;;;;5015162;28;25063;-66
2023/01/04 11:48:54;;;;;;;8.45;3.63;;;12.80;99.90;;;;;;5011447;28;20037;-66
2023/01/04 11:51:35;;;;;;;7.03;3.53;;;12.80;99.90;;;;;;5020946;28;20403;-66
2023/01/04 11:54:13;;;;;;;9.15;3.60;;;12.90;99.90;;;;;;5015624;28;20230;-66
2023/01/04 11:56:55;;;;;;;11.18;3.72;;;12.90;99.90;;;;;;5026426;28;20041;-66
2023/01/04 11:59:21;;;;;;;8.90;3.72;;;12.90;99.90;;;;;;5025741;28;20037;-65
2023/01/04 12:01:51;;;;;;;6.65;3.55;;;12.90;99.90;;;;;;5009909;28;20128;-65
2023/01/04 12:04:23;;;;;;;7.13;3.65;;;13.00;99.90;;;;;;5000101;28;20415;-65
2023/01/04 12:06:54;;;;;;;9.95;3.70;;;13.00;99.90;;;;;;5032962;28;20103;-65
2023/01/04 12:09:20;;;;;;;10.90;3.70;;;13.00;99.90;;;;;;5013555;28;20042;-65
2023/01/04 12:11:54;;;;;;;9.25;3.67;;;13.00;99.90;;;;;;5021103;28;20398;-65
2023/01/04 12:14:36;;;;;;;7.38;3.72;;;13.00;99.90;;;;;;5025530;28;20043;-65
2023/01/04 12:17:29;;;;;;;4.78;3.15;;;13.00;99.90;;;;;;5021882;28;20411;-65
2023/01/04 12:19:56;;;;;;;6.10;2.95;;;13.00;99.90;;;;;;5021616;28;20049;-65
2023/01/04 12:22:31;;;;;;;6.88;2.28;;;12.90;99.90;;;;;;5022844;28;20116;-65
2023/01/04 12:24:57;;;;;;;4.78;2.20;;;12.80;99.90;;;;;;5028370;28;20649;-65
2023/01/04 12:27:23;;;;;;;4.10;2.00;;;12.80;99.90;;;;;;5008400;28;20040;-65
2023/01/04 12:29:55;;;;;;;3.88;1.90;;;12.70;99.90;;;;;;5026283;28;20037;-65
2023/01/04 12:32:26;;;;;;;3.30;1.60;;;12.60;99.90;;;;;;5010471;28;20404;-65
2023/01/04 12:34:53;;;;;;;2.45;1.55;;;12.60;99.90;;;;;;5009966;28;20672;-65
2023/01/04 12:37:51;;;;;;;2.78;1.58;;;12.60;99.90;;;;;;5021706;28;20037;-65
2023/01/04 12:40:45;;;;;;;3.10;1.48;;;12.70;99.90;;;;;;4997672;28;20037;-65
2023/01/04 12:43:13;;;;;;;2.70;1.25;;;12.70;99.90;;;;;;5017160;28;20534;-65
2023/01/04 12:45:43;;;;;;;4.60;1.70;;;12.70;99.90;;;;;;5018807;28;20040;-65
2023/01/04 12:51:24;;;;;;;3.45;1.60;;;12.60;99.90;;;;;;5031324;28;20084;-65
2023/01/04 12:54:02;;;;;;;4.30;1.75;;;12.40;99.90;;;;;;4988971;28;20053;-65
2023/01/04 12:57:05;;;;;;;4.10;1.63;;;12.40;99.90;;;;;;5025321;28;20033;-65
2023/01/04 12:59:37;;;;;;;4.13;1.92;;;12.50;99.90;;;;;;5010772;28;20064;-65
2023/01/04 13:02:23;;;;;;;4.57;2.08;;;12.50;99.90;;;;;;5010387;28;20388;-65
2023/01/04 13:04:52;;;;;;;6.68;2.85;;;12.60;99.90;;;;;;5029080;28;20041;-65
2023/01/04 13:07:23;;;;;;;8.80;2.60;;;12.70;99.90;;;;;;5030248;28;20506;-65
2023/01/04 13:10:06;;;;;;;9.05;2.80;;;12.70;99.90;;;;;;5021692;28;20030;-65
2023/01/04 13:13:12;;;;;;;8.23;3.08;;;12.70;99.90;;;;;;5025680;28;20045;-65
2023/01/04 13:15:58;;;;;;;7.82;2.45;;;12.70;99.90;;;;;;5012381;28;20033;-65
2023/01/04 13:18:24;;;;;;;8.82;2.78;;;12.80;99.90;;;;;;5014415;28;20049;-65
2023/01/04 13:20:49;;;;;;;10.82;3.30;;;12.70;99.90;;;;;;5030983;28;20119;-65
2023/01/04 13:23:15;;;;;;;10.55;2.80;;;12.80;99.90;;;;;;5016084;28;20553;-65
2023/01/04 13:25:41;;;;;;;9.52;2.90;;;12.80;99.90;;;;;;5018299;28;20365;-65
2023/01/04 13:28:16;;;;;;;12.32;3.20;;;12.80;99.90;;;;;;5024949;28;20471;-65
2023/01/04 13:30:42;;;;;;;10.35;2.78;;;12.80;99.90;;;;;;5018364;28;20076;-65
2023/01/04 13:33:22;;;;;;;12.57;2.95;;;12.80;99.90;;;;;;5027150;28;20049;-65
2023/01/04 13:36:17;;;;;;;10.27;3.30;;;12.80;99.90;;;;;;5024289;28;20052;-65
2023/01/04 13:38:43;;;;;;;12.10;3.10;;;12.80;99.90;;;;;;4991476;28;20799;-65
2023/01/04 13:41:21;;;;;;;15.65;3.38;;;12.80;99.90;;;;;;5026897;28;20076;-65
2023/01/04 13:44:10;;;;;;;10.45;2.63;;;12.80;99.90;;;;;;5005366;28;20052;-65
2023/01/04 13:46:36;;;;;;;12.55;2.92;;;12.90;99.90;;;;;;5016581;28;20048;-66
2023/01/04 13:49:02;;;;;;;14.90;3.33;;;12.80;99.90;;;;;;4988198;28;20060;-66
2023/01/04 13:51:37;;;;;;;14.27;3.15;;;12.90;99.90;;;;;;4983886;28;20045;-67